Time;durP1;ratioP1;P1;durP2;ratioP2;P2;SDS_P1;SDS_P2;PMS_P1;PMS_P2;Temp;Humidity;BMP_temperature;BMP_pressure;BME280_temperature;BME280_humidity;BME280_pressure;Samples;Min_cycle;Max_cycle;Signal;HPM_P1;HPM_P2
2020/12/07 00:00:08;;;;;;;10.93;6.70;;;;;;;1.90;100.00;94340.56;5076361;28;20223;-70
2020/12/07 00:02:34;;;;;;;11.53;6.73;;;;;;;1.96;100.00;94340.69;5076508;28;20204;-70
2020/12/07 00:05:01;;;;;;;11.40;6.63;;;;;;;1.87;100.00;94343.47;5078437;28;20228;-70
2020/12/07 00:07:28;;;;;;;13.20;6.90;;;;;;;1.69;100.00;94340.31;5080089;28;20202;-70
2020/12/07 00:09:54;;;;;;;9.83;6.63;;;;;;;1.82;100.00;94338.03;5080339;28;20250;-70
2020/12/07 00:12:25;;;;;;;12.10;7.07;;;;;;;1.85;100.00;94340.25;5079860;28;20671;-69
2020/12/07 00:14:51;;;;;;;10.20;6.43;;;;;;;1.90;100.00;94340.56;5080253;28;20204;-69
2020/12/07 00:17:20;;;;;;;10.63;6.77;;;;;;;1.88;100.00;94352.88;5080325;28;20786;-70
2020/12/07 00:19:46;;;;;;;10.60;6.90;;;;;;;1.81;100.00;94365.75;5079970;28;20223;-70
2020/12/07 00:22:12;;;;;;;11.50;6.47;;;;;;;1.83;100.00;94357.78;5079745;28;20655;-70
2020/12/07 00:24:38;;;;;;;9.17;6.30;;;;;;;1.88;100.00;94350.28;5080026;28;20235;-70
2020/12/07 00:27:04;;;;;;;12.37;6.70;;;;;;;1.90;100.00;94353.53;5079424;28;20214;-70
2020/12/07 00:29:30;;;;;;;11.00;6.50;;;;;;;1.99;100.00;94360.31;5079898;28;20850;-70
2020/12/07 00:31:57;;;;;;;11.03;6.77;;;;;;;1.94;100.00;94365.19;5079588;28;20195;-70
2020/12/07 00:34:23;;;;;;;10.53;6.47;;;;;;;1.92;100.00;94367.97;5079683;28;20204;-70
2020/12/07 00:36:49;;;;;;;10.57;6.60;;;;;;;1.95;100.00;94377.22;5079367;28;20227;-70
2020/12/07 00:39:15;;;;;;;9.67;6.53;;;;;;;2.05;100.00;94377.78;5079491;28;20230;-70
2020/12/07 00:41:42;;;;;;;11.97;6.60;;;;;;;1.98;100.00;94382.84;5079713;28;20203;-70
2020/12/07 00:44:08;;;;;;;10.63;6.87;;;;;;;1.95;100.00;94379.81;5079417;28;20222;-70
2020/12/07 00:46:34;;;;;;;10.40;6.57;;;;;;;1.94;100.00;94378.19;5078734;28;20575;-70
2020/12/07 00:49:00;;;;;;;9.07;6.13;;;;;;;1.99;100.00;94387.06;5079347;28;20224;-70
2020/12/07 00:51:26;;;;;;;9.70;6.10;;;;;;;1.92;100.00;94372.34;5079288;28;20208;-70
2020/12/07 00:53:52;;;;;;;10.07;5.97;;;;;;;1.92;100.00;94372.34;5079282;28;20295;-70
2020/12/07 00:56:18;;;;;;;10.20;5.97;;;;;;;1.98;100.00;94367.28;5078335;28;20697;-70
2020/12/07 00:58:45;;;;;;;7.60;5.20;;;;;;;1.97;100.00;94373.47;5079785;28;20318;-70
2020/12/07 01:01:11;;;;;;;8.77;5.90;;;;;;;1.95;100.00;94382.41;5078997;28;20204;-70
2020/12/07 01:03:37;;;;;;;8.80;5.70;;;;;;;1.90;100.00;94374.31;5078865;28;20211;-70
2020/12/07 01:06:03;;;;;;;9.90;5.30;;;;;;;1.98;100.00;94361.28;5078123;28;20290;-70
2020/12/07 01:08:29;;;;;;;6.60;4.27;;;;;;;1.97;100.00;94351.88;5079100;28;20239;-70
2020/12/07 01:10:55;;;;;;;8.33;4.70;;;;;;;1.98;100.00;94350.91;5079196;28;20364;-70
2020/12/07 01:13:22;;;;;;;7.13;5.07;;;;;;;1.94;100.00;94375.59;5079092;28;20204;-70
2020/12/07 01:15:49;;;;;;;7.00;4.63;;;;;;;1.94;100.00;94381.56;5078021;28;20200;-70
2020/12/07 01:18:15;;;;;;;7.80;4.93;;;;;;;1.87;100.00;94401.44;5078714;28;20204;-70
2020/12/07 01:20:41;;;;;;;9.27;5.27;;;;;;;1.84;100.00;94421.72;5078721;28;20210;-70
2020/12/07 01:23:07;;;;;;;7.17;4.80;;;;;;;1.92;100.00;94434.66;5079517;28;20291;-70
2020/12/07 01:25:33;;;;;;;6.97;4.97;;;;;;;1.98;100.00;94452.19;5078082;28;20223;-70
2020/12/07 01:27:59;;;;;;;6.10;4.60;;;;;;;1.88;100.00;94467.13;5077967;28;20200;-70
2020/12/07 01:30:25;;;;;;;6.10;4.50;;;;;;;1.98;100.00;94470.34;5079224;28;20349;-70
2020/12/07 01:32:52;;;;;;;5.93;4.30;;;;;;;1.89;100.00;94469.56;5079241;28;20200;-70
2020/12/07 01:35:18;;;;;;;7.83;4.50;;;;;;;1.95;100.00;94475.88;5077355;28;20202;-70
2020/12/07 01:37:44;;;;;;;5.37;4.20;;;;;;;1.90;100.00;94475.59;5078669;28;20200;-70
2020/12/07 01:40:11;;;;;;;6.30;4.20;;;;;;;1.84;100.00;94468.44;5078291;28;20443;-70
2020/12/07 01:42:37;;;;;;;6.37;4.00;;;;;;;1.88;100.00;94474.94;5078514;28;20204;-70
2020/12/07 01:45:03;;;;;;;5.93;3.87;;;;;;;1.95;100.00;94473.28;5077365;28;20227;-70
2020/12/07 01:47:29;;;;;;;6.10;3.70;;;;;;;1.99;100.00;94471.97;5078594;28;20207;-70
2020/12/07 01:49:56;;;;;;;6.13;3.70;;;;;;;1.93;100.00;94459.66;5078219;28;20835;-70
2020/12/07 01:52:24;;;;;;;5.40;3.93;;;;;;;1.88;100.00;94457.59;5077868;28;20204;-70
2020/12/07 01:54:51;;;;;;;5.13;4.07;;;;;;;1.84;100.00;94445.88;5078118;28;21049;-70
2020/12/07 01:57:17;;;;;;;5.03;3.57;;;;;;;1.75;100.00;94438.31;5077386;28;20204;-70
2020/12/07 01:59:43;;;;;;;5.90;4.03;;;;;;;1.73;100.00;94435.06;5077754;28;20223;-70
2020/12/07 02:02:10;;;;;;;5.73;3.70;;;;;;;1.78;100.00;94432.75;5078454;28;20203;-70
2020/12/07 02:04:36;;;;;;;6.87;4.10;;;;;;;1.86;100.00;94440.56;5077950;28;20227;-70
2020/12/07 02:07:03;;;;;;;4.30;3.40;;;;;;;1.88;100.00;94444.59;5076884;28;20674;-70
2020/12/07 02:09:29;;;;;;;5.53;3.70;;;;;;;1.90;100.00;94462.59;5077997;28;20315;-70
2020/12/07 02:11:56;;;;;;;6.23;3.80;;;;;;;1.94;100.00;94474.28;5077683;28;20204;-70
2020/12/07 02:14:22;;;;;;;6.37;3.87;;;;;;;1.93;100.00;94477.84;5077796;28;20204;-70
2020/12/07 02:16:49;;;;;;;8.70;4.23;;;;;;;1.96;100.00;94493.06;5076994;28;20199;-70
2020/12/07 02:19:15;;;;;;;9.97;4.50;;;;;;;1.91;100.00;94506.56;5077601;28;20227;-70
2020/12/07 02:21:42;;;;;;;7.67;4.03;;;;;;;1.83;100.00;94521.34;5077573;28;20207;-70
2020/12/07 02:24:08;;;;;;;6.73;4.10;;;;;;;1.84;100.00;94528.16;5077725;28;20238;-70
2020/12/07 02:26:34;;;;;;;7.80;4.07;;;;;;;1.76;100.00;94533.38;5075980;28;20200;-70
2020/12/07 02:29:00;;;;;;;9.97;5.03;;;;;;;1.79;100.00;94527.84;5077478;28;20316;-70
2020/12/07 02:31:25;;;;;;;7.83;4.57;;;;;;;1.80;100.00;94517.28;5077402;28;20290;-70
2020/12/07 02:33:51;;;;;;;7.70;4.87;;;;;;;1.62;100.00;94525.47;5077622;28;20738;-70
2020/12/07 02:36:17;;;;;;;7.67;4.47;;;;;;;1.67;100.00;94513.63;5077135;28;20203;-70
2020/12/07 02:38:44;;;;;;;6.20;4.07;;;;;;;1.50;100.00;94512.03;5077040;28;20801;-70
2020/12/07 02:41:10;;;;;;;6.50;4.20;;;;;;;1.53;100.00;94498.72;5077170;28;20199;-70
2020/12/07 02:43:36;;;;;;;7.83;3.90;;;;;;;1.44;100.00;94502.28;5076982;28;20227;-69
2020/12/07 02:46:03;;;;;;;7.47;4.43;;;;;;;1.51;100.00;94505.84;5077881;28;20785;-69
2020/12/07 02:48:29;;;;;;;6.43;4.33;;;;;;;1.59;100.00;94503.25;5077088;28;20219;-70
2020/12/07 02:50:55;;;;;;;5.53;3.60;;;;;;;1.63;100.00;94503.72;5076541;28;20258;-69
2020/12/07 02:53:21;;;;;;;6.60;3.70;;;;;;;1.56;100.00;94495.78;5077834;28;20298;-69
2020/12/07 02:55:47;;;;;;;5.63;3.00;;;;;;;1.48;100.00;94500.19;5076309;28;20227;-69
2020/12/07 02:58:13;;;;;;;4.33;2.97;;;;;;;1.48;100.00;94506.19;5076717;28;20206;-69
2020/12/07 03:00:39;;;;;;;4.47;3.10;;;;;;;1.41;100.00;94502.63;5077825;28;20206;-69
2020/12/07 03:03:05;;;;;;;3.60;2.73;;;;;;;1.62;100.00;94510.69;5077039;28;20199;-69
2020/12/07 03:05:31;;;;;;;4.90;3.17;;;;;;;1.71;100.00;94530.47;5076419;28;20728;-69
2020/12/07 03:07:57;;;;;;;4.90;3.10;;;;;;;1.63;100.00;94535.69;5076888;28;20282;-69
2020/12/07 03:10:23;;;;;;;7.43;3.57;;;;;;;1.67;100.00;94533.56;5076901;28;20206;-69
2020/12/07 03:12:50;;;;;;;6.40;3.70;;;;;;;1.66;100.00;94535.34;5076189;28;20243;-69
2020/12/07 03:15:16;;;;;;;7.07;3.60;;;;;;;1.64;100.00;94544.28;5076358;28;20199;-69
2020/12/07 03:17:42;;;;;;;9.40;4.57;;;;;;;1.72;100.00;94544.25;5077001;28;20206;-69
2020/12/07 03:20:08;;;;;;;8.70;3.70;;;;;;;1.74;100.00;94544.91;5076326;28;21067;-69
2020/12/07 03:22:34;;;;;;;5.27;2.47;;;;;;;1.83;100.00;94542.13;5077035;28;20207;-69
2020/12/07 03:25:00;;;;;;;3.93;2.53;;;;;;;1.77;100.00;94537.63;5076106;28;20223;-69
2020/12/07 03:27:26;;;;;;;2.70;2.23;;;;;;;1.80;100.00;94535.47;5076458;28;20206;-69
2020/12/07 03:29:53;;;;;;;6.60;2.87;;;;;;;1.83;100.00;94537.75;5076690;28;20239;-69
2020/12/07 03:32:19;;;;;;;6.37;2.70;;;;;;;1.84;100.00;94536.75;5076788;28;20207;-70
2020/12/07 03:34:45;;;;;;;7.47;2.80;;;;;;;1.78;100.00;94547.00;5076584;28;21459;-70
2020/12/07 03:37:11;;;;;;;7.03;2.90;;;;;;;1.85;100.00;94542.78;5076090;28;20195;-69
2020/12/07 03:39:37;;;;;;;4.87;3.00;;;;;;;1.95;100.00;94548.59;5079317;28;20353;-69
2020/12/07 03:42:03;;;;;;;6.83;3.07;;;;;;;1.93;100.00;94558.34;5080589;28;20204;-70
2020/12/07 03:44:29;;;;;;;8.37;3.87;;;;;;;1.86;100.00;94565.19;5080677;28;20633;-70
2020/12/07 03:46:56;;;;;;;7.50;3.43;;;;;;;1.87;100.00;94565.00;5080342;28;20225;-70
2020/12/07 03:49:22;;;;;;;9.37;4.00;;;;;;;2.04;100.00;94576.19;5078117;28;20262;-69
2020/12/07 03:51:48;;;;;;;13.33;4.50;;;;;;;1.96;100.00;94576.16;5080786;28;20710;-69
2020/12/07 03:54:14;;;;;;;10.70;4.50;;;;;;;1.88;100.00;94576.19;5080808;28;20577;-70
2020/12/07 03:56:40;;;;;;;9.13;4.30;;;;;;;1.87;100.00;94582.34;5079611;28;20259;-70
2020/12/07 03:59:06;;;;;;;8.17;3.90;;;;;;;1.92;100.00;94573.13;5080477;28;20223;-69
2020/12/07 04:01:32;;;;;;;12.83;4.40;;;;;;;1.94;100.00;94578.13;5080729;28;20210;-69
2020/12/07 04:04:02;;;;;;;8.97;4.07;;;;;;;1.95;100.00;94577.16;5080088;28;20605;-69
2020/12/07 04:06:31;;;;;;;6.70;3.77;;;;;;;1.90;100.00;94571.66;5079681;28;20230;-69
2020/12/07 04:08:57;;;;;;;6.83;3.40;;;;;;;1.80;100.00;94566.63;5080802;28;20223;-69
2020/12/07 04:11:23;;;;;;;6.80;3.63;;;;;;;1.90;100.00;94563.88;5080462;28;20260;-70
2020/12/07 04:13:49;;;;;;;7.17;3.73;;;;;;;1.93;100.00;94568.72;5080190;28;20207;-70
2020/12/07 04:16:15;;;;;;;7.20;3.37;;;;;;;1.88;100.00;94571.00;5079062;28;20222;-70
2020/12/07 04:18:41;;;;;;;9.67;3.70;;;;;;;1.90;100.00;94571.66;5080397;28;20226;-70
2020/12/07 04:21:07;;;;;;;4.70;3.00;;;;;;;1.75;100.00;94562.91;5080433;28;20211;-69
2020/12/07 04:23:33;;;;;;;7.13;3.43;;;;;;;1.85;100.00;94563.56;5079628;28;20539;-69
2020/12/07 04:26:00;;;;;;;8.03;3.37;;;;;;;1.93;100.00;94563.53;5079260;28;20300;-70
2020/12/07 04:28:26;;;;;;;6.47;3.27;;;;;;;1.98;100.00;94561.25;5079648;28;20242;-70
2020/12/07 04:30:52;;;;;;;5.60;3.10;;;;;;;1.84;100.00;94561.94;5079329;28;21132;-69
2020/12/07 04:33:18;;;;;;;7.70;3.30;;;;;;;1.83;100.00;94562.91;5079956;28;20667;-69
2020/12/07 04:35:44;;;;;;;4.63;3.10;;;;;;;1.94;100.00;94563.34;5079267;28;20195;-69
2020/12/07 04:38:11;;;;;;;6.10;3.67;;;;;;;1.89;100.00;94565.63;5079717;28;20207;-69
2020/12/07 04:40:39;;;;;;;5.03;3.27;;;;;;;1.84;100.00;94567.13;5079909;28;20204;-70
2020/12/07 04:43:05;;;;;;;6.30;3.30;;;;;;;1.90;100.00;94567.25;5079643;28;20215;-70
2020/12/07 04:45:31;;;;;;;8.07;3.10;;;;;;;1.92;100.00;94569.69;5078495;28;20223;-70
2020/12/07 04:47:59;;;;;;;4.23;3.23;;;;;;;1.86;100.00;94572.97;5079266;28;20208;-70
2020/12/07 04:50:29;;;;;;;6.17;3.47;;;;;;;1.88;100.00;94579.63;5078975;28;20214;-70
2020/12/07 04:52:56;;;;;;;7.03;3.40;;;;;;;1.85;100.00;94579.13;5079389;28;20203;-70
2020/12/07 04:55:24;;;;;;;5.90;3.40;;;;;;;1.83;100.00;94581.91;5078675;28;20204;-70
2020/12/07 04:57:50;;;;;;;6.67;3.57;;;;;;;1.83;100.00;94581.06;5079380;28;20373;-70
2020/12/07 05:00:21;;;;;;;4.23;2.87;;;;;;;1.93;100.00;94581.72;5079013;28;21169;-70
2020/12/07 05:02:51;;;;;;;26.97;9.70;;;;;;;2.00;100.00;94572.28;5079148;28;20345;-70
2020/12/07 05:05:17;;;;;;;10.30;4.83;;;;;;;1.95;100.00;94580.56;5078069;28;20219;-69
2020/12/07 05:07:48;;;;;;;9.27;4.33;;;;;;;1.97;100.00;94572.59;5079215;28;20211;-69
2020/12/07 05:10:15;;;;;;;6.83;4.13;;;;;;;1.92;100.00;94565.31;5078781;28;20671;-70
2020/12/07 05:12:46;;;;;;;7.90;3.17;;;;;;;1.84;100.00;94573.09;5079676;28;20212;-70
2020/12/07 05:15:13;;;;;;;9.27;4.40;;;;;;;1.87;100.00;94579.75;5078532;28;20297;-69
2020/12/07 05:17:40;;;;;;;6.23;4.20;;;;;;;1.89;100.00;94580.41;5079055;28;20204;-69
2020/12/07 05:20:07;;;;;;;6.97;3.80;;;;;;;1.97;100.00;94583.81;5078853;28;20251;-69
2020/12/07 05:22:34;;;;;;;12.17;6.17;;;;;;;1.89;100.00;94583.00;5079662;28;20211;-70
2020/12/07 05:25:03;;;;;;;13.13;6.80;;;;;;;1.99;100.00;94594.03;5077540;28;20228;-70
2020/12/07 05:27:32;;;;;;;13.83;7.03;;;;;;;1.98;100.00;94587.22;5078805;28;20204;-70
2020/12/07 05:30:07;;;;;;;10.73;5.37;;;;;;;1.96;100.00;94596.94;5079279;28;20279;-70
2020/12/07 05:32:34;;;;;;;12.53;6.93;;;;;;;1.89;100.00;94593.41;5078401;28;21181;-70
2020/12/07 05:35:00;;;;;;;12.80;7.10;;;;;;;1.94;100.00;94598.91;5078229;28;20199;-70
2020/12/07 05:37:26;;;;;;;13.70;7.30;;;;;;;1.97;100.00;94608.97;5078502;28;20232;-70
2020/12/07 05:39:54;;;;;;;13.90;7.20;;;;;;;1.90;100.00;94605.41;5078600;28;20227;-70
2020/12/07 05:42:22;;;;;;;12.70;6.93;;;;;;;1.86;100.00;94617.13;5078470;28;21102;-70
2020/12/07 05:44:49;;;;;;;8.37;5.13;;;;;;;1.86;100.00;94622.31;5078453;28;20783;-70
2020/12/07 05:47:19;;;;;;;12.63;5.93;;;;;;;1.86;100.00;94617.91;5077743;28;20212;-70
2020/12/07 05:49:49;;;;;;;9.83;5.50;;;;;;;1.84;100.00;94632.81;5077798;28;20227;-70
2020/12/07 05:52:21;;;;;;;9.20;5.80;;;;;;;1.78;100.00;94635.28;5078603;28;20211;-70
2020/12/07 05:54:49;;;;;;;8.30;4.90;;;;;;;1.81;100.00;94642.75;5078394;28;20200;-70
2020/12/07 05:57:17;;;;;;;7.10;4.87;;;;;;;1.88;100.00;94647.13;5077122;28;20698;-70
2020/12/07 05:59:46;;;;;;;7.03;3.93;;;;;;;1.98;100.00;94654.75;5077718;28;20231;-70
2020/12/07 06:02:15;;;;;;;8.80;4.07;;;;;;;1.97;100.00;94650.50;5077777;28;20203;-70
2020/12/07 06:04:42;;;;;;;7.70;4.10;;;;;;;1.95;100.00;94655.06;5077624;28;20228;-69
2020/12/07 06:07:11;;;;;;;13.33;4.70;;;;;;;2.03;100.00;94648.06;5077242;28;20215;-70
2020/12/07 06:09:40;;;;;;;7.17;4.37;;;;;;;2.03;100.00;94655.06;5077734;28;20588;-70
2020/12/07 06:12:09;;;;;;;10.57;4.97;;;;;;;2.08;100.00;94655.38;5077786;28;20482;-70
2020/12/07 06:14:37;;;;;;;9.77;4.70;;;;;;;2.14;100.00;94645.16;5077814;28;20196;-70
2020/12/07 06:17:03;;;;;;;7.63;4.93;;;;;;;2.12;100.00;94648.88;5077039;28;20200;-70
2020/12/07 06:19:31;;;;;;;12.03;5.53;;;;;;;2.11;100.00;94644.66;5077870;28;20281;-70
2020/12/07 06:22:00;;;;;;;10.13;5.60;;;;;;;2.14;100.00;94645.16;5077381;28;20671;-70
2020/12/07 06:24:37;;;;;;;12.37;7.20;;;;;;;2.24;100.00;94648.38;5077862;28;20658;-70
2020/12/07 06:27:05;;;;;;;10.07;6.30;;;;;;;2.16;100.00;94650.16;5076431;28;20385;-70
2020/12/07 06:29:31;;;;;;;9.83;6.37;;;;;;;2.19;100.00;94649.84;5077081;28;20216;-70
2020/12/07 06:31:58;;;;;;;18.27;8.97;;;;;;;2.20;100.00;94646.25;5077723;28;20192;-70
2020/12/07 06:34:33;;;;;;;14.70;8.97;;;;;;;2.11;100.00;94645.47;5077896;28;20204;-71
2020/12/07 06:37:00;;;;;;;17.90;8.53;;;;;;;2.03;100.00;94655.06;5076797;28;20234;-71
2020/12/07 06:39:26;;;;;;;15.23;8.37;;;;;;;2.02;100.00;94654.25;5076797;28;20223;-70
2020/12/07 06:41:56;;;;;;;15.47;8.63;;;;;;;1.96;100.00;94660.09;5077334;28;20315;-71
2020/12/07 06:44:23;;;;;;;16.63;6.97;;;;;;;1.92;100.00;94657.97;5077370;28;20218;-70
2020/12/07 06:46:57;;;;;;;14.13;7.17;;;;;;;1.90;100.00;94657.34;5075999;28;20208;-70
2020/12/07 06:49:31;;;;;;;15.43;7.47;;;;;;;1.88;100.00;94667.06;5076723;28;20219;-70
2020/12/07 06:52:03;;;;;;;14.87;7.90;;;;;;;1.89;100.00;94669.50;5077514;28;20199;-70
2020/12/07 06:57:22;;;;;;;22.13;9.93;;;;;;;1.69;100.00;94693.34;5076530;28;20218;-70
2020/12/07 06:59:59;;;;;;;22.37;10.70;;;;;;;1.69;100.00;94703.75;5077145;28;20976;-70
2020/12/07 07:02:25;;;;;;;15.77;7.63;;;;;;;1.74;100.00;94693.69;5076910;28;20204;-70
2020/12/07 07:04:53;;;;;;;15.07;8.23;;;;;;;1.64;100.00;94700.81;5076857;28;20223;-70
2020/12/07 07:07:20;;;;;;;15.07;9.43;;;;;;;1.60;100.00;94702.09;5076604;28;20196;-70
2020/12/07 07:09:47;;;;;;;15.90;8.63;;;;;;;1.60;100.00;94699.50;5076415;28;20216;-70
2020/12/07 07:12:14;;;;;;;15.83;8.53;;;;;;;1.55;100.00;94704.38;5076772;28;20696;-70
2020/12/07 07:14:41;;;;;;;15.93;8.67;;;;;;;1.50;100.00;94711.84;5076869;28;20200;-70
2020/12/07 07:17:07;;;;;;;15.57;8.27;;;;;;;1.55;100.00;94717.34;5076320;28;20195;-70
2020/12/07 07:19:33;;;;;;;19.57;8.33;;;;;;;1.54;100.00;94715.75;5076598;28;20223;-70
2020/12/07 07:22:00;;;;;;;14.20;8.10;;;;;;;1.48;100.00;94716.38;5077063;28;20192;-70
2020/12/07 07:24:28;;;;;;;17.60;8.33;;;;;;;1.51;100.00;94726.41;5076991;28;20200;-70
2020/12/07 07:27:07;;;;;;;15.27;8.23;;;;;;;1.52;100.00;94729.84;5075769;28;20208;-70
2020/12/07 07:29:33;;;;;;;13.50;6.37;;;;;;;1.44;100.00;94727.22;5076394;28;20223;-70
2020/12/07 07:31:59;;;;;;;16.00;7.47;;;;;;;1.44;100.00;94732.41;5076396;28;21242;-70
2020/12/07 07:34:25;;;;;;;14.50;7.40;;;;;;;1.45;100.00;94727.09;5076756;28;20203;-70
2020/12/07 07:36:51;;;;;;;15.70;8.33;;;;;;;1.38;100.00;94728.66;5075800;28;20256;-70
2020/12/07 07:39:17;;;;;;;14.77;7.93;;;;;;;1.38;100.00;94730.47;5076748;28;20220;-70
2020/12/07 07:41:45;;;;;;;13.10;7.30;;;;;;;1.34;100.00;94737.75;5076416;28;20208;-70
2020/12/07 07:44:14;;;;;;;16.40;7.63;;;;;;;1.37;100.00;94752.19;5076684;28;20586;-70
2020/12/07 07:46:43;;;;;;;12.50;7.03;;;;;;;1.20;100.00;94747.94;5075732;28;20234;-70
2020/12/07 07:49:20;;;;;;;18.30;7.97;;;;;;;1.27;100.00;94754.94;5076334;28;20710;-70
2020/12/07 07:52:34;;;;;;;14.73;7.47;;;;;;;1.34;100.00;94755.09;5076302;28;20841;-70
2020/12/07 08:15:30;;;;;;;24.37;10.00;;;;;;;1.49;100.00;94779.47;5058007;28;20247;-70
2020/12/07 08:17:59;;;;;;;23.00;10.43;;;;;;;1.44;100.00;94787.72;5035887;28;20205;-70
2020/12/07 08:20:27;;;;;;;23.13;10.47;;;;;;;1.53;100.00;94788.56;5030515;28;20205;-70
2020/12/07 08:22:55;;;;;;;23.93;11.13;;;;;;;1.59;100.00;94796.53;5035717;28;20592;-70
2020/12/07 08:25:38;;;;;;;18.37;9.50;;;;;;;1.58;100.00;94796.69;5032378;28;20334;-70
2020/12/07 08:28:15;;;;;;;21.40;8.97;;;;;;;1.56;100.00;94802.03;5032160;28;20202;-70
2020/12/07 08:30:55;;;;;;;19.90;9.10;;;;;;;1.64;100.00;94809.84;5039351;28;20208;-70
2020/12/07 08:33:22;;;;;;;23.87;12.43;;;;;;;1.66;100.00;94807.09;5035157;28;20205;-70
2020/12/07 08:35:48;;;;;;;19.83;10.07;;;;;;;1.65;100.00;94805.47;5037337;28;20205;-70
2020/12/07 08:38:24;;;;;;;37.23;17.43;;;;;;;1.69;100.00;94801.59;5033134;28;20258;-70
2020/12/07 08:40:50;;;;;;;20.67;10.33;;;;;;;1.66;100.00;94802.72;5038120;28;20821;-70
2020/12/07 08:43:16;;;;;;;21.97;10.13;;;;;;;1.67;100.00;94793.13;5039290;28;20209;-70
2020/12/07 08:45:44;;;;;;;20.43;10.43;;;;;;;1.74;100.00;94794.94;5038530;28;20221;-71
2020/12/07 08:48:10;;;;;;;17.23;7.90;;;;;;;1.69;100.00;94799.78;5033019;28;20213;-70
2020/12/07 08:50:37;;;;;;;18.10;9.00;;;;;;;1.76;100.00;94800.81;5039105;28;20220;-71
2020/12/07 08:53:03;;;;;;;20.63;10.37;;;;;;;1.88;100.00;94807.31;5039028;28;20197;-70
2020/12/07 08:55:28;;;;;;;21.40;9.17;;;;;;;1.94;100.00;94814.47;5026438;28;20278;-71
2020/12/07 08:57:54;;;;;;;20.37;10.53;;;;;;;2.10;100.00;94822.28;5038516;28;20215;-71
2020/12/07 09:00:20;;;;;;;26.00;12.20;;;;;;;2.17;100.00;94816.28;5034099;28;20342;-70
2020/12/07 09:02:46;;;;;;;20.80;9.73;;;;;;;2.19;100.00;94831.69;5038821;28;20212;-70
2020/12/07 09:05:12;;;;;;;18.43;9.03;;;;;;;2.18;100.00;94840.50;5038450;28;20232;-71
2020/12/07 09:07:39;;;;;;;15.90;8.57;;;;;;;2.06;100.00;94831.34;5038869;28;20251;-70
2020/12/07 09:10:05;;;;;;;17.67;8.37;;;;;;;2.17;100.00;94825.88;5031342;28;20224;-71
2020/12/07 09:12:31;;;;;;;15.37;8.40;;;;;;;2.01;100.00;94825.81;5038908;28;20217;-71
2020/12/07 09:14:56;;;;;;;19.50;9.80;;;;;;;2.02;100.00;94828.25;5038633;28;20664;-70
2020/12/07 09:17:22;;;;;;;18.80;10.00;;;;;;;2.05;100.00;94829.72;5038269;28;20209;-70
2020/12/07 09:19:48;;;;;;;23.70;9.93;;;;;;;2.17;100.00;94841.44;5038730;28;20228;-69
2020/12/07 09:22:14;;;;;;;16.93;8.70;;;;;;;2.30;100.00;94845.19;5038960;28;20568;-70
2020/12/07 09:24:41;;;;;;;17.50;8.80;;;;;;;2.33;100.00;94850.09;5037976;28;20216;-71
2020/12/07 09:27:07;;;;;;;15.03;7.80;;;;;;;2.31;100.00;94856.41;5031289;28;20220;-71
2020/12/07 09:29:33;;;;;;;14.07;7.20;;;;;;;2.29;100.00;94859.19;5034693;28;20220;-71
2020/12/07 09:31:59;;;;;;;15.97;7.97;;;;;;;2.28;100.00;94856.72;5038814;28;21144;-71
2020/12/07 09:34:25;;;;;;;21.37;8.93;;;;;;;2.31;100.00;94869.41;5039000;28;20205;-70
2020/12/07 09:36:50;;;;;;;16.83;8.53;;;;;;;2.44;100.00;94873.97;5037053;28;21039;-71
2020/12/07 09:39:16;;;;;;;15.17;8.17;;;;;;;2.46;100.00;94874.59;5030303;28;20227;-70
2020/12/07 09:41:43;;;;;;;15.53;7.40;;;;;;;2.46;100.00;94873.81;5036900;28;20197;-70
2020/12/07 09:44:09;;;;;;;10.70;6.17;;;;;;;2.49;100.00;94871.69;5038068;28;20205;-70
2020/12/07 09:46:35;;;;;;;14.13;7.43;;;;;;;2.61;100.00;94865.19;5037595;28;20248;-70
2020/12/07 09:49:01;;;;;;;20.43;10.43;;;;;;;2.51;100.00;94861.16;5037988;28;20225;-71
2020/12/07 09:51:27;;;;;;;13.53;6.97;;;;;;;2.63;100.00;94849.44;5038494;28;20213;-70
2020/12/07 09:59:59;;;;;;;11.07;5.67;;;;;;;2.76;100.00;94849.75;5094900;27;20546;-72
2020/12/07 10:02:25;;;;;;;9.17;5.37;;;;;;;2.88;100.00;94851.03;5094052;28;20199;-72
2020/12/07 10:04:51;;;;;;;11.97;6.77;;;;;;;2.85;100.00;94849.59;5094436;28;20209;-73
2020/12/07 10:07:17;;;;;;;12.80;5.80;;;;;;;2.90;100.00;94842.09;5094149;28;20199;-72
2020/12/07 10:09:43;;;;;;;14.50;6.93;;;;;;;2.98;100.00;94834.28;5094144;28;20237;-71
2020/12/07 10:12:09;;;;;;;14.07;6.43;;;;;;;2.98;100.00;94839.50;5093973;28;20214;-71
2020/12/07 10:14:35;;;;;;;10.77;5.30;;;;;;;2.90;100.00;94839.47;5094142;28;20203;-71
2020/12/07 10:17:02;;;;;;;11.37;6.27;;;;;;;2.96;100.00;94846.63;5093865;28;20203;-72
2020/12/07 10:19:28;;;;;;;7.90;4.53;;;;;;;2.88;100.00;94845.81;5094083;28;21308;-72
2020/12/07 10:21:54;;;;;;;9.83;5.50;;;;;;;2.92;100.00;94836.75;5093910;28;20214;-72
2020/12/07 10:24:20;;;;;;;8.40;5.10;;;;;;;2.95;100.00;94841.59;5094034;28;20199;-72
2020/12/07 10:26:46;;;;;;;6.23;3.40;;;;;;;2.92;100.00;94837.53;5093377;28;20199;-72
2020/12/07 10:29:12;;;;;;;7.00;4.30;;;;;;;2.84;100.00;94834.97;5093596;28;20215;-72
2020/12/07 10:31:38;;;;;;;7.60;4.03;;;;;;;2.79;100.00;94839.84;5094227;28;20702;-71
2020/12/07 10:34:05;;;;;;;6.90;3.77;;;;;;;2.67;100.00;94835.13;5094071;28;20191;-72
2020/12/07 10:36:31;;;;;;;7.70;4.10;;;;;;;2.58;100.00;94834.34;5092599;28;20738;-72
2020/12/07 10:38:57;;;;;;;9.07;4.63;;;;;;;2.61;100.00;94831.41;5093752;28;20230;-72
2020/12/07 10:41:26;;;;;;;26.17;9.73;;;;;;;2.54;100.00;94833.00;5093830;28;20199;-72
2020/12/07 10:43:52;;;;;;;19.60;7.53;;;;;;;2.35;100.00;94831.72;5093084;28;20206;-73
2020/12/07 10:46:18;;;;;;;7.37;3.53;;;;;;;2.29;100.00;94835.78;5093116;28;20199;-72
2020/12/07 10:48:44;;;;;;;16.80;8.20;;;;;;;2.31;100.00;94830.44;5093255;28;20303;-72
2020/12/07 10:51:13;;;;;;;17.13;8.63;;;;;;;2.35;100.00;94827.34;5094524;28;20276;-72
2020/12/07 10:53:39;;;;;;;9.43;4.93;;;;;;;2.35;100.00;94831.72;5093512;28;20214;-72
2020/12/07 10:56:06;;;;;;;8.00;4.03;;;;;;;2.33;100.00;94823.25;5092615;28;20286;-72
2020/12/07 10:58:32;;;;;;;17.83;9.10;;;;;;;2.36;100.00;94830.75;5093307;28;20234;-73
2020/12/07 11:00:58;;;;;;;10.70;5.90;;;;;;;2.41;100.00;94827.50;5093619;28;20203;-73
2020/12/07 11:03:24;;;;;;;9.77;5.20;;;;;;;2.22;100.00;94831.41;5093276;28;20617;-73
2020/12/07 11:05:50;;;;;;;9.13;4.60;;;;;;;2.36;100.00;94833.34;5092342;28;20214;-73
2020/12/07 11:08:19;;;;;;;10.60;5.47;;;;;;;2.40;100.00;94836.25;5093582;28;20203;-73
2020/12/07 11:10:45;;;;;;;21.57;11.03;;;;;;;2.32;100.00;94837.22;5083095;28;20566;-73
2020/12/07 11:13:24;;;;;;;17.30;9.70;;;;;;;2.35;100.00;94849.91;5079526;28;20203;-73
2020/12/07 11:15:50;;;;;;;13.10;7.47;;;;;;;2.41;100.00;94845.69;5078999;28;20212;-73
2020/12/07 11:18:16;;;;;;;9.47;5.07;;;;;;;2.35;100.00;94844.72;5079740;28;20710;-73
2020/12/07 11:20:42;;;;;;;9.67;5.27;;;;;;;2.17;100.00;94849.25;5079340;28;20206;-73
2020/12/07 11:23:08;;;;;;;12.90;6.10;;;;;;;2.09;100.00;94851.84;5079114;28;20208;-73
2020/12/07 11:25:35;;;;;;;9.33;5.00;;;;;;;2.03;100.00;94848.06;5078955;28;20199;-73
2020/12/07 11:28:01;;;;;;;11.70;6.03;;;;;;;2.07;100.00;94843.38;5079295;28;20219;-73
2020/12/07 11:30:27;;;;;;;14.53;6.70;;;;;;;2.04;100.00;94843.72;5079193;28;21120;-73
2020/12/07 11:32:53;;;;;;;18.00;8.03;;;;;;;2.07;100.00;94845.97;5079121;28;20204;-73
2020/12/07 11:35:19;;;;;;;13.23;5.70;;;;;;;2.04;100.00;94848.91;5078754;28;20203;-73
2020/12/07 11:37:48;;;;;;;19.90;6.60;;;;;;;2.04;100.00;94851.50;5079072;28;20211;-73
2020/12/07 11:40:17;;;;;;;14.27;6.33;;;;;;;2.20;100.00;94854.13;5078727;28;20253;-73
2020/12/07 11:42:50;;;;;;;19.17;7.80;;;;;;;2.26;100.00;94845.69;5078696;28;20195;-73
2020/12/07 11:45:16;;;;;;;18.97;8.07;;;;;;;2.46;100.00;94842.63;5077414;28;20682;-73
2020/12/07 11:47:42;;;;;;;14.23;7.60;;;;;;;2.48;100.00;94840.66;5078972;28;20218;-73
2020/12/07 11:50:08;;;;;;;11.73;5.63;;;;;;;2.43;100.00;94828.16;5078805;28;20211;-73
2020/12/07 11:52:34;;;;;;;13.80;4.97;;;;;;;2.40;100.00;94827.66;5078752;28;20214;-73
2020/12/07 11:55:00;;;;;;;14.17;6.30;;;;;;;2.49;100.00;94826.69;5077837;28;20228;-73
2020/12/07 11:57:26;;;;;;;17.80;6.40;;;;;;;2.60;100.00;94808.97;5079199;28;20283;-73